Time;durP1;ratioP1;P1;durP2;ratioP2;P2;SDS_P1;SDS_P2;PMS_P1;PMS_P2;Temp;Humidity;BMP_temperature;BMP_pressure;BME280_temperature;BME280_humidity;BME280_pressure;Samples;Min_cycle;Max_cycle;Signal;HPM_P1;HPM_P2
2023/08/30 00:04:29;;;;;;;2.58;1.58;;;;;;;21.28;59.23;96106.25;10415560;28;20450;-29
2023/08/30 00:09:30;;;;;;;2.45;1.40;;;;;;;21.27;59.60;96102.03;10412060;28;20067;-29
2023/08/30 00:14:30;;;;;;;2.20;1.27;;;;;;;21.26;59.36;96105.47;10413538;28;20033;-29
2023/08/30 00:19:31;;;;;;;1.83;1.33;;;;;;;21.26;59.58;96107.16;10415059;28;20033;-29
2023/08/30 00:24:31;;;;;;;1.40;1.10;;;;;;;21.27;59.58;96104.59;10408689;28;20044;-29
2023/08/30 00:29:32;;;;;;;1.75;1.42;;;;;;;21.26;59.42;96102.06;10414650;28;20400;-29
2023/08/30 00:34:34;;;;;;;1.83;1.30;;;;;;;21.24;59.53;96109.72;10412112;28;20391;-28
2023/08/30 00:39:37;;;;;;;2.43;1.10;;;;;;;21.25;59.40;96113.97;10412819;28;20021;-28
2023/08/30 00:44:38;;;;;;;2.00;1.50;;;;;;;21.26;59.23;96108.00;10421066;28;20091;-29
2023/08/30 00:49:40;;;;;;;2.75;1.45;;;;;;;21.25;59.47;96106.34;10409831;28;20036;-29
2023/08/30 00:54:41;;;;;;;3.95;1.38;;;;;;;21.25;59.36;96097.84;10413044;28;20108;-29
2023/08/30 00:59:41;;;;;;;1.23;1.10;;;;;;;21.26;59.57;96087.63;10417819;28;20116;-28
2023/08/30 01:04:41;;;;;;;3.05;1.52;;;;;;;21.23;59.46;96085.13;10407931;28;20129;-29
2023/08/30 01:09:42;;;;;;;2.07;1.53;;;;;;;21.25;59.95;96080.88;10408525;28;20052;-28
2023/08/30 01:14:53;;;;;;;1.70;1.10;;;;;;;21.24;59.52;96086.81;10400688;28;20036;-29
2023/08/30 01:20:04;;;;;;;10.85;1.42;;;;;;;21.24;59.84;96083.44;10409822;28;20297;-29
2023/08/30 01:25:33;;;;;;;4.20;1.40;;;;;;;21.19;59.43;96073.34;10407781;28;20037;-31
2023/08/30 01:30:37;;;;;;;1.88;1.20;;;;;;;21.21;59.77;96074.16;10405097;28;20069;-28
2023/08/30 01:35:40;;;;;;;3.90;1.67;;;;;;;21.19;59.35;96068.25;10406272;28;20404;-29
2023/08/30 01:40:43;;;;;;;2.08;1.05;;;;;;;21.22;59.42;96063.09;10410344;28;20415;-28
2023/08/30 01:45:44;;;;;;;1.48;1.02;;;;;;;21.21;59.32;96069.06;10411944;28;20044;-29
2023/08/30 01:50:45;;;;;;;4.10;1.50;;;;;;;21.19;59.50;96065.72;10408987;28;20045;-29
2023/08/30 01:55:46;;;;;;;1.80;1.30;;;;;;;21.20;59.32;96071.63;10407033;28;20359;-29
2023/08/30 02:00:46;;;;;;;3.17;1.02;;;;;;;21.21;59.42;96063.16;10405836;28;20052;-28
2023/08/30 02:06:30;;;;;;;1.63;1.00;;;;;;;21.20;59.50;96077.56;10409093;28;20403;-28
2023/08/30 02:11:34;;;;;;;1.98;1.17;;;;;;;21.19;59.55;96060.63;10312593;28;20064;-30
2023/08/30 02:16:36;;;;;;;1.75;1.20;;;;;;;21.18;59.44;96064.03;10408359;28;20488;-29
2023/08/30 02:21:37;;;;;;;1.65;1.10;;;;;;;21.21;59.33;96063.97;10407324;28;20525;-28
2023/08/30 02:26:37;;;;;;;1.48;1.20;;;;;;;21.18;59.38;96056.41;10409533;28;20040;-29
2023/08/30 02:31:38;;;;;;;1.67;1.13;;;;;;;21.18;59.23;96056.41;10403091;28;20045;-29
2023/08/30 02:36:38;;;;;;;1.63;1.07;;;;;;;21.19;59.28;96049.59;10409224;28;20666;-29
2023/08/30 02:41:40;;;;;;;1.63;0.83;;;;;;;21.17;59.49;96052.19;10407920;28;20327;-28
2023/08/30 02:46:41;;;;;;;1.23;1.00;;;;;;;21.16;59.45;96058.16;10402774;28;20044;-29
2023/08/30 02:51:41;;;;;;;1.98;1.35;;;;;;;21.15;59.44;96066.63;10408777;28;20041;-29
2023/08/30 02:56:43;;;;;;;1.57;0.87;;;;;;;21.20;59.32;96064.00;10399851;28;20036;-29
2023/08/30 03:01:43;;;;;;;1.40;0.95;;;;;;;21.17;59.41;96057.28;10408558;28;20766;-28
2023/08/30 03:06:45;;;;;;;1.58;1.13;;;;;;;21.16;59.19;96047.97;10406416;28;20121;-29
2023/08/30 03:11:47;;;;;;;1.77;0.90;;;;;;;21.13;59.32;96045.47;10406120;28;20033;-29
2023/08/30 03:16:47;;;;;;;2.13;1.27;;;;;;;21.15;59.29;96033.53;10401125;28;20479;-29
2023/08/30 03:21:48;;;;;;;2.17;0.95;;;;;;;21.15;59.14;96025.09;10404845;28;20322;-29
2023/08/30 03:26:48;;;;;;;1.47;0.90;;;;;;;21.14;59.42;96031.88;10406570;28;20037;-29
2023/08/30 03:31:49;;;;;;;1.13;1.00;;;;;;;21.13;59.16;96030.19;10405301;28;20855;-29
2023/08/30 03:36:54;;;;;;;2.20;0.83;;;;;;;21.15;58.75;96033.53;10405520;28;20284;-29
2023/08/30 03:41:54;;;;;;;1.27;0.80;;;;;;;21.12;58.99;96028.53;10405203;28;20276;-29
2023/08/30 03:46:56;;;;;;;0.80;0.80;;;;;;;21.12;59.12;96031.06;10412011;28;20033;-29
2023/08/30 03:51:57;;;;;;;1.40;1.00;;;;;;;21.12;58.92;96033.63;10402280;28;20392;-29
2023/08/30 03:56:57;;;;;;;2.45;0.95;;;;;;;21.11;59.23;96037.03;10401454;28;20029;-28
2023/08/30 04:01:57;;;;;;;1.47;1.10;;;;;;;21.09;59.08;96033.69;10407135;28;20055;-28
2023/08/30 04:06:58;;;;;;;1.57;1.10;;;;;;;21.12;59.22;96043.78;10405222;28;20304;-29
2023/08/30 04:12:00;;;;;;;2.10;1.00;;;;;;;21.13;59.13;96044.66;10400535;28;20112;-28
2023/08/30 04:17:00;;;;;;;1.15;0.90;;;;;;;21.10;58.76;96045.53;10406997;28;20108;-28
2023/08/30 04:22:01;;;;;;;7.50;2.60;;;;;;;20.95;57.38;96050.94;10404241;28;20029;-29
2023/08/30 04:27:01;;;;;;;0.90;0.67;;;;;;;20.33;53.71;96047.88;10414465;28;20043;-29
2023/08/30 04:32:01;;;;;;;1.70;0.70;;;;;;;20.06;52.70;96035.66;10410849;28;20545;-29
2023/08/30 04:37:03;;;;;;;0.87;0.80;;;;;;;19.87;52.46;96035.97;10410022;28;20022;-29
2023/08/30 04:42:03;;;;;;;1.00;0.68;;;;;;;19.76;52.32;96048.81;10408854;28;20395;-28
2023/08/30 04:47:04;;;;;;;2.05;0.70;;;;;;;19.73;52.33;96048.03;10405885;28;20031;-28
2023/08/30 04:52:05;;;;;;;0.60;0.60;;;;;;;19.56;52.65;96039.81;10412461;28;20040;-29
2023/08/30 04:57:05;;;;;;;1.20;0.77;;;;;;;19.57;52.42;96041.50;10407367;28;20545;-28
2023/08/30 05:02:08;;;;;;;1.23;0.63;;;;;;;19.42;52.52;96047.66;10409014;28;20040;-28
2023/08/30 05:07:14;;;;;;;2.05;0.70;;;;;;;19.49;52.73;96043.34;10410689;28;20065;-28
2023/08/30 05:12:15;;;;;;;1.57;0.70;;;;;;;19.43;52.48;96049.31;10412007;28;20037;-29
2023/08/30 05:17:15;;;;;;;0.70;0.70;;;;;;;19.34;52.33;96051.16;10406857;28;20030;-28
2023/08/30 05:22:16;;;;;;;2.37;0.80;;;;;;;19.31;52.35;96052.03;10412809;28;20029;-28
2023/08/30 05:27:17;;;;;;;2.77;1.43;;;;;;;19.40;52.63;96059.53;10407541;28;20037;-28
2023/08/30 05:32:18;;;;;;;2.08;0.60;;;;;;;19.36;52.52;96057.06;10409271;28;20295;-28
2023/08/30 05:37:41;;;;;;;0.88;0.63;;;;;;;19.25;51.71;96047.03;10408443;28;20046;-28
2023/08/30 05:43:00;;;;;;;0.60;0.52;;;;;;;19.15;52.42;96052.22;10405312;28;20053;-28
2023/08/30 05:48:00;;;;;;;1.07;0.73;;;;;;;19.15;52.28;96059.84;10409769;28;20029;-28
2023/08/30 05:53:01;;;;;;;0.90;0.70;;;;;;;19.08;52.84;96058.25;10409275;28;20037;-28
2023/08/30 05:58:01;;;;;;;1.90;0.80;;;;;;;19.19;52.90;96061.53;10409525;28;20033;-28
2023/08/30 06:03:04;;;;;;;1.67;0.60;;;;;;;19.21;53.41;96054.72;10402842;28;20496;-28
2023/08/30 06:08:05;;;;;;;0.85;0.80;;;;;;;19.09;53.43;96049.78;10406273;28;20038;-28
2023/08/30 06:13:05;;;;;;;0.93;0.82;;;;;;;19.09;53.45;96048.06;10410781;28;20037;-28
2023/08/30 06:18:06;;;;;;;1.37;0.67;;;;;;;19.00;53.55;96042.31;10406008;28;20029;-27
2023/08/30 06:23:06;;;;;;;2.13;1.13;;;;;;;18.94;54.05;96047.44;10409950;28;20041;-28
2023/08/30 06:28:06;;;;;;;0.90;0.70;;;;;;;18.94;53.27;96042.38;10405176;28;20296;-29
2023/08/30 06:33:07;;;;;;;0.85;0.80;;;;;;;18.85;54.14;96042.47;10409775;28;20282;-29
2023/08/30 06:38:07;;;;;;;1.17;0.80;;;;;;;18.81;54.44;96056.03;10411794;28;20862;-28
2023/08/30 06:43:08;;;;;;;1.75;0.90;;;;;;;18.85;54.89;96050.09;10412966;28;20408;-28
2023/08/30 06:48:09;;;;;;;1.30;0.82;;;;;;;18.81;55.63;96050.97;10407267;28;20599;-28
2023/08/30 06:53:09;;;;;;;1.30;0.80;;;;;;;18.80;55.53;96039.16;10404974;28;20072;-28
2023/08/30 06:58:09;;;;;;;1.83;0.80;;;;;;;18.91;55.44;96037.34;10409009;28;20091;-28
2023/08/30 07:03:10;;;;;;;0.67;0.67;;;;;;;18.83;56.15;96039.94;10404107;28;20064;-28
2023/08/30 07:08:10;;;;;;;1.50;1.13;;;;;;;18.98;55.73;96036.38;10408633;28;20481;-28
2023/08/30 07:13:11;;;;;;;1.23;1.00;;;;;;;18.97;55.96;96038.09;10405163;28;20542;-28
2023/08/30 07:18:12;;;;;;;1.50;1.00;;;;;;;18.92;56.24;96044.09;10416753;28;20040;-28
2023/08/30 07:23:12;;;;;;;4.40;2.90;;;;;;;18.91;56.86;96039.88;10400698;28;20697;-28
2023/08/30 07:28:12;;;;;;;1.57;0.90;;;;;;;18.98;56.71;96049.06;10399396;28;20045;-28
2023/08/30 07:33:13;;;;;;;3.50;1.30;;;;;;;18.97;57.25;96052.47;10407902;28;20049;-27
2023/08/30 07:38:13;;;;;;;2.20;1.07;;;;;;;19.04;56.45;96038.84;10405473;28;20288;-28
2023/08/30 07:43:13;;;;;;;19.63;2.63;;;;;;;19.61;55.87;96035.53;10407960;28;20284;-28
2023/08/30 07:48:14;;;;;;;11.97;2.30;;;;;;;19.89;55.44;96029.13;10399403;28;20033;-28
2023/08/30 07:53:14;;;;;;;10.70;1.97;;;;;;;20.00;55.21;96023.03;10404483;28;20295;-28
2023/08/30 07:58:14;;;;;;;9.60;2.57;;;;;;;20.12;55.30;96027.94;10386453;28;20029;-28
2023/08/30 08:03:15;;;;;;;5.70;1.20;;;;;;;20.14;55.19;96016.03;10409406;28;20033;-28
2023/08/30 08:08:16;;;;;;;6.20;1.23;;;;;;;20.19;55.14;96011.69;10414732;28;20812;-28
2023/08/30 08:13:17;;;;;;;1.77;1.10;;;;;;;20.26;55.08;96020.06;10407911;28;20436;-28
2023/08/30 08:18:17;;;;;;;8.90;1.07;;;;;;;20.31;55.57;96018.25;10408990;28;20137;-28
2023/08/30 08:23:17;;;;;;;3.50;1.30;;;;;;;20.23;55.56;96022.66;10399881;28;20040;-28
2023/08/30 08:28:18;;;;;;;3.42;1.20;;;;;;;20.30;55.74;96016.59;10411482;28;20034;-28
2023/08/30 08:33:18;;;;;;;3.53;1.00;;;;;;;20.38;56.01;96016.41;10407015;28;20044;-28
2023/08/30 08:38:19;;;;;;;5.03;1.35;;;;;;;20.38;55.86;96009.66;10414418;28;20284;-28
2023/08/30 08:43:20;;;;;;;4.97;1.20;;;;;;;20.42;55.74;96017.19;10412032;28;20029;-28
2023/08/30 08:48:21;;;;;;;4.05;1.42;;;;;;;20.45;55.80;96023.06;10410477;28;20112;-28
2023/08/30 08:53:23;;;;;;;1.88;1.33;;;;;;;20.49;55.66;96014.53;10420705;28;20033;-27
2023/08/30 08:58:24;;;;;;;2.15;1.80;;;;;;;20.49;55.35;96022.16;10410348;28;20094;-28
2023/08/30 09:03:24;;;;;;;4.65;1.70;;;;;;;20.51;55.13;96028.06;10413864;28;20172;-27
2023/08/30 09:08:25;;;;;;;1.92;1.20;;;;;;;20.52;55.15;96023.78;10407139;28;20029;-28
2023/08/30 09:13:26;;;;;;;3.28;2.63;;;;;;;20.51;55.60;96027.19;10410973;28;20033;-28
2023/08/30 09:18:27;;;;;;;5.17;2.30;;;;;;;20.49;56.07;96024.72;10418028;28;20032;-28
2023/08/30 09:23:27;;;;;;;11.40;2.38;;;;;;;20.62;56.98;96032.94;10409404;28;20282;-28
2023/08/30 09:28:28;;;;;;;3.30;1.87;;;;;;;20.56;56.47;96035.59;10411323;28;20124;-27
2023/08/30 09:33:33;;;;;;;2.58;1.65;;;;;;;20.54;56.46;96032.25;10409105;28;20065;-28
2023/08/30 09:38:33;;;;;;;2.22;1.60;;;;;;;20.56;56.08;96035.59;10409779;28;20093;-28
2023/08/30 09:43:34;;;;;;;3.00;1.70;;;;;;;20.52;56.47;96032.25;10411768;28;20040;-28
2023/08/30 09:48:37;;;;;;;2.88;2.00;;;;;;;20.45;55.57;96040.88;10409187;28;20335;-26
2023/08/30 09:53:43;;;;;;;3.40;1.70;;;;;;;20.49;55.84;96034.88;10411733;28;20033;-27
2023/08/30 09:58:44;;;;;;;;;;;;;;;20.46;56.47;96041.72;10410960;28;20396;-28
2023/08/30 10:03:45;;;;;;;2.23;1.50;;;;;;;20.48;56.55;96033.16;10409801;28;19920;-28
2023/08/30 10:08:48;;;;;;;4.70;1.98;;;;;;;20.52;57.22;96029.72;10411383;28;20041;-28
2023/08/30 10:13:51;;;;;;;4.13;1.65;;;;;;;20.52;57.53;96034.81;10414631;28;20037;-28
2023/08/30 10:18:59;;;;;;;2.05;1.80;;;;;;;20.57;57.05;96039.81;10410183;28;20026;-28
2023/08/30 10:24:01;;;;;;;3.80;1.73;;;;;;;20.59;57.04;96038.06;10401900;28;20484;-29
2023/08/30 10:29:03;;;;;;;3.72;1.70;;;;;;;20.63;56.60;96032.88;10406445;28;20125;-28
2023/08/30 10:34:13;;;;;;;11.90;3.25;;;;;;;20.51;58.21;96028.06;10410030;28;20037;-28
2023/08/30 10:39:14;;;;;;;12.23;2.42;;;;;;;20.55;58.02;96024.56;10404529;28;20029;-28
2023/08/30 10:44:21;;;;;;;10.70;2.88;;;;;;;20.48;58.23;96014.56;10409345;28;20491;-28
2023/08/30 10:49:23;;;;;;;7.13;2.40;;;;;;;20.48;58.20;96019.63;10402503;28;20075;-27
2023/08/30 10:54:24;;;;;;;4.53;3.05;;;;;;;20.50;57.96;96015.34;10405475;28;20399;-28
2023/08/30 10:59:24;;;;;;;8.68;2.60;;;;;;;20.51;58.07;96017.88;10404509;28;20033;-28
2023/08/30 11:04:25;;;;;;;7.22;2.72;;;;;;;20.54;57.47;96020.34;10407333;28;20091;-28
2023/08/30 11:09:26;;;;;;;5.83;2.20;;;;;;;20.63;57.17;96026.97;10408879;28;20033;-28
2023/08/30 11:14:26;;;;;;;18.35;3.00;;;;;;;20.62;58.07;96028.69;10424870;28;20303;-28
2023/08/30 11:19:30;;;;;;;9.87;2.40;;;;;;;20.64;57.60;96023.56;10410978;28;20428;-28
2023/08/30 11:24:30;;;;;;;10.23;3.08;;;;;;;20.63;58.29;96014.28;10403212;28;20064;-28
2023/08/30 11:29:31;;;;;;;7.87;2.60;;;;;;;20.63;57.93;96010.00;10407797;28;20044;-28
2023/08/30 11:34:31;;;;;;;6.13;2.78;;;;;;;20.59;57.97;96005.84;10411309;28;20303;-28
2023/08/30 11:39:31;;;;;;;12.07;2.43;;;;;;;20.60;58.24;95996.50;10421685;28;20044;-29
2023/08/30 11:44:32;;;;;;;5.60;2.63;;;;;;;20.64;58.33;95982.88;10415909;28;20033;-27
2023/08/30 11:49:34;;;;;;;19.50;3.33;;;;;;;20.65;58.61;95987.91;10421660;28;20579;-28
2023/08/30 11:54:34;;;;;;;10.70;3.03;;;;;;;20.74;58.68;95980.13;10416137;28;20283;-28
2023/08/30 11:59:38;;;;;;;4.90;2.13;;;;;;;20.84;58.02;95971.41;10420344;28;20037;-28
2023/08/30 12:04:45;;;;;;;44.08;3.80;;;;;;;20.88;59.54;95983.22;10421675;28;20496;-29
2023/08/30 12:09:45;;;;;;;12.52;3.00;;;;;;;20.79;58.86;95982.56;10417294;28;20109;-28
2023/08/30 12:14:54;;;;;;;5.53;2.00;;;;;;;20.68;59.03;95975.16;10411635;28;20033;-28
2023/08/30 12:19:58;;;;;;;21.50;3.03;;;;;;;20.83;59.21;95961.25;10420236;28;20037;-28
2023/08/30 12:24:59;;;;;;;29.77;6.03;;;;;;;20.86;58.61;95962.06;10418771;28;20240;-29
2023/08/30 12:30:00;;;;;;;27.90;4.63;;;;;;;20.90;58.85;95953.50;10419732;28;20152;-28
2023/08/30 12:35:01;;;;;;;23.88;3.80;;;;;;;20.81;58.94;95953.66;10419847;28;20050;-28
2023/08/30 12:40:01;;;;;;;26.47;4.60;;;;;;;20.89;59.79;95945.91;10417833;28;20029;-28
2023/08/30 12:45:03;;;;;;;32.27;4.90;;;;;;;20.89;59.97;95944.19;10416796;28;20407;-28
2023/08/30 12:50:04;;;;;;;16.85;3.10;;;;;;;21.05;59.10;95937.88;10410135;28;20037;-28
2023/08/30 12:55:05;;;;;;;10.70;3.72;;;;;;;20.98;59.31;95943.16;10413546;28;20045;-28
2023/08/30 13:00:06;;;;;;;22.70;4.22;;;;;;;20.95;59.75;95944.06;10407051;28;20369;-27
2023/08/30 13:05:06;;;;;;;13.73;2.92;;;;;;;20.98;59.77;95943.16;10413203;28;20033;-28
2023/08/30 13:10:07;;;;;;;10.38;2.80;;;;;;;21.27;58.78;95944.19;10411815;28;20492;-28
2023/08/30 13:15:08;;;;;;;10.55;3.45;;;;;;;20.99;59.40;95944.84;10407216;28;20041;-28
2023/08/30 13:20:09;;;;;;;8.98;2.70;;;;;;;20.88;59.48;95945.06;10412587;28;20029;-28
2023/08/30 13:25:09;;;;;;;14.75;2.25;;;;;;;20.90;59.68;95940.78;10405226;28;20120;-28
2023/08/30 13:30:10;;;;;;;11.10;2.30;;;;;;;20.85;59.70;95934.94;10411839;28;20513;-29
2023/08/30 13:35:10;;;;;;;11.82;2.85;;;;;;;20.88;58.93;95934.88;10412247;28;20040;-28
2023/08/30 13:40:11;;;;;;;7.57;1.93;;;;;;;20.82;59.17;95927.34;10405145;28;20042;-28
2023/08/30 13:45:13;;;;;;;10.15;2.80;;;;;;;20.85;59.05;95932.38;10408731;28;20049;-29
2023/08/30 13:50:13;;;;;;;8.93;3.75;;;;;;;20.83;58.64;95931.59;10411740;28;20029;-30
2023/08/30 13:55:14;;;;;;;5.50;2.37;;;;;;;20.83;59.14;95923.97;10407447;28;20036;-29
2023/08/30 14:00:14;;;;;;;3.33;1.30;;;;;;;20.82;59.07;95929.06;10411416;28;20033;-29
2023/08/30 14:05:15;;;;;;;7.35;1.88;;;;;;;20.79;58.98;95932.50;10408864;28;20303;-28
2023/08/30 14:10:18;;;;;;;4.85;1.80;;;;;;;20.84;58.70;95929.88;10404788;28;20033;-29
2023/08/30 14:15:18;;;;;;;3.15;1.48;;;;;;;20.84;58.60;95929.88;10403166;28;20034;-29
2023/08/30 14:20:18;;;;;;;7.07;2.10;;;;;;;20.82;58.27;95932.44;10409280;28;20491;-28
2023/08/30 14:25:19;;;;;;;5.80;1.60;;;;;;;20.80;58.56;95931.63;10410002;28;20099;-29
2023/08/30 14:30:19;;;;;;;2.07;1.27;;;;;;;20.81;58.16;95948.56;10409179;28;20041;-28
2023/08/30 14:35:24;;;;;;;7.67;1.60;;;;;;;20.81;58.21;95950.28;10409544;28;20339;-28
2023/08/30 14:40:24;;;;;;;5.53;1.55;;;;;;;20.79;57.70;95946.94;10406151;28;20296;-28
2023/08/30 14:45:24;;;;;;;8.27;1.47;;;;;;;20.80;57.36;95949.44;10400573;28;20038;-29
2023/08/30 14:50:25;;;;;;;5.00;1.40;;;;;;;20.70;56.93;95920.00;10409283;28;20040;-28
2023/08/30 14:55:25;;;;;;;3.00;1.40;;;;;;;20.74;57.93;95949.59;10405823;28;20065;-29
2023/08/30 15:00:26;;;;;;;11.57;2.13;;;;;;;20.79;57.75;95954.59;10409156;28;20276;-28
2023/08/30 15:05:26;;;;;;;5.20;1.40;;;;;;;20.77;58.12;95957.16;10406662;28;20585;-28
2023/08/30 15:10:27;;;;;;;3.67;1.80;;;;;;;20.76;58.20;95955.47;10408969;28;20048;-29
2023/08/30 15:15:29;;;;;;;7.23;2.73;;;;;;;20.77;58.22;95946.97;10401246;28;20037;-29
2023/08/30 15:20:30;;;;;;;4.78;1.65;;;;;;;20.75;56.56;95951.25;10408342;28;20033;-27
2023/08/30 15:25:31;;;;;;;5.87;1.40;;;;;;;20.71;58.26;95949.63;10403870;28;20072;-29
2023/08/30 15:30:31;;;;;;;7.93;1.75;;;;;;;20.76;57.62;95941.91;10405475;28;20050;-28
2023/08/30 15:35:32;;;;;;;5.20;1.47;;;;;;;20.74;58.01;95944.50;10407615;28;20030;-27
2023/08/30 15:40:33;;;;;;;4.80;1.47;;;;;;;20.75;58.10;95942.78;10403410;28;20033;-29
2023/08/30 15:45:34;;;;;;;5.60;1.30;;;;;;;20.74;57.86;95948.75;10407759;28;20403;-28
2023/08/30 15:50:35;;;;;;;2.95;1.27;;;;;;;20.74;57.78;95941.13;10406862;28;20029;-29
2023/08/30 15:55:37;;;;;;;3.70;1.40;;;;;;;20.76;57.91;95939.38;10407561;28;20037;-28
2023/08/30 16:00:40;;;;;;;4.43;1.20;;;;;;;20.77;57.08;95929.16;10402203;28;20072;-28
2023/08/30 16:05:41;;;;;;;3.58;1.30;;;;;;;20.76;56.86;95922.41;10403218;28;20400;-29
2023/08/30 16:10:42;;;;;;;2.90;1.23;;;;;;;20.80;55.96;95938.44;10407095;28;20048;-29
2023/08/30 16:15:42;;;;;;;2.73;1.30;;;;;;;20.79;56.10;95932.50;10399415;28;20364;-27
2023/08/30 16:20:43;;;;;;;6.47;1.53;;;;;;;20.76;55.02;95930.03;10410458;28;20026;-28
2023/08/30 16:25:43;;;;;;;2.35;1.40;;;;;;;20.77;54.92;95934.25;10409272;28;20045;-28
2023/08/30 16:30:43;;;;;;;1.80;1.30;;;;;;;20.77;54.24;95934.25;10411511;28;20033;-29
2023/08/30 16:35:46;;;;;;;4.90;1.53;;;;;;;20.72;53.67;95936.03;10413311;28;20275;-29
2023/08/30 16:40:47;;;;;;;2.33;1.55;;;;;;;20.71;53.21;95938.66;10406961;28;20032;-29
2023/08/30 16:45:47;;;;;;;2.33;1.40;;;;;;;20.74;55.03;95951.28;10413993;28;20533;-29
2023/08/30 16:50:48;;;;;;;1.73;1.33;;;;;;;20.74;55.44;95949.59;10424688;28;20061;-28
2023/08/30 16:55:49;;;;;;;3.88;1.52;;;;;;;20.73;55.39;95937.72;10428898;28;20552;-29
2023/08/30 17:00:49;;;;;;;2.87;1.60;;;;;;;20.75;55.85;95940.25;10429782;28;20167;-30
2023/08/30 17:05:49;;;;;;;3.57;1.50;;;;;;;20.76;55.79;95944.44;10425899;28;20682;-28
2023/08/30 17:10:50;;;;;;;2.83;1.33;;;;;;;20.76;56.43;95941.91;10420800;28;21382;-28
2023/08/30 17:15:50;;;;;;;3.77;1.50;;;;;;;20.78;56.27;95940.16;10427696;28;20033;-28
2023/08/30 17:20:50;;;;;;;5.00;1.90;;;;;;;20.78;56.65;95951.19;10417210;28;20511;-28
2023/08/30 17:25:52;;;;;;;3.47;1.77;;;;;;;20.78;56.46;95951.19;10408315;28;20292;-27
2023/08/30 17:30:52;;;;;;;4.40;1.60;;;;;;;20.76;56.89;95959.72;10410702;28;20128;-28
2023/08/30 17:35:54;;;;;;;2.30;1.27;;;;;;;20.76;57.00;95967.34;10405923;28;20048;-28
2023/08/30 17:40:55;;;;;;;3.53;1.45;;;;;;;20.80;56.77;95974.88;10406192;28;20025;-30
2023/08/30 17:45:55;;;;;;;5.77;2.13;;;;;;;20.78;56.85;95979.19;10411424;28;20033;-28
2023/08/30 17:50:56;;;;;;;4.17;1.63;;;;;;;20.80;56.60;95990.16;10402902;28;20029;-28
2023/08/30 17:55:57;;;;;;;1.65;1.30;;;;;;;20.80;56.81;95992.69;10411180;28;20112;-28
2023/08/30 18:00:59;;;;;;;4.38;1.60;;;;;;;20.82;57.01;96000.31;10408971;28;20553;-27
2023/08/30 18:06:01;;;;;;;8.02;1.65;;;;;;;20.80;57.04;96005.41;10407742;28;20051;-30
2023/08/30 18:11:01;;;;;;;2.20;1.33;;;;;;;20.82;57.30;96008.75;10404347;28;20404;-28
2023/08/30 18:16:01;;;;;;;6.57;1.57;;;;;;;20.80;57.39;96012.22;10401820;28;20054;-29
2023/08/30 18:21:02;;;;;;;5.05;2.33;;;;;;;20.84;57.06;96011.28;10410209;28;20037;-29
2023/08/30 18:26:02;;;;;;;7.03;1.50;;;;;;;20.84;57.19;96017.22;10412305;28;20581;-28
2023/08/30 18:31:03;;;;;;;10.60;2.20;;;;;;;20.86;57.33;96025.69;10405947;28;20103;-29
2023/08/30 18:36:05;;;;;;;4.38;1.52;;;;;;;20.86;57.30;96025.69;10411127;28;20508;-29
2023/08/30 18:41:05;;;;;;;5.40;2.15;;;;;;;20.89;57.23;96035.78;10397359;28;20117;-28
2023/08/30 18:46:05;;;;;;;7.17;1.87;;;;;;;20.91;57.38;96040.84;10406138;28;20037;-28
2023/08/30 18:51:06;;;;;;;5.40;1.60;;;;;;;20.91;57.58;96054.44;10398993;28;20042;-29
2023/08/30 18:56:06;;;;;;;5.43;2.17;;;;;;;20.89;57.58;96056.16;10398549;28;20041;-28
2023/08/30 19:01:07;;;;;;;8.35;1.70;;;;;;;20.89;57.59;96063.78;10406477;28;20025;-29
2023/08/30 19:06:07;;;;;;;4.73;1.90;;;;;;;20.89;57.60;96081.59;10398641;28;20087;-29
2023/08/30 19:11:09;;;;;;;4.82;2.00;;;;;;;20.88;57.68;96069.75;10423295;28;20033;-28
2023/08/30 19:16:10;;;;;;;3.88;1.52;;;;;;;20.88;57.43;96079.91;10415298;28;20064;-29
2023/08/30 19:21:11;;;;;;;5.73;1.73;;;;;;;20.87;57.54;96075.69;10422405;28;20030;-29
2023/08/30 19:26:12;;;;;;;3.03;1.85;;;;;;;20.90;57.74;96072.25;10416945;28;20428;-28
2023/08/30 19:31:12;;;;;;;4.63;1.70;;;;;;;20.87;57.63;96070.59;10414698;28;20385;-28
2023/08/30 19:36:18;;;;;;;5.80;2.00;;;;;;;20.88;57.62;96074.81;10407966;28;20060;-30
2023/08/30 19:41:18;;;;;;;7.50;2.20;;;;;;;20.84;57.81;96072.34;10401005;28;20037;-28
2023/08/30 19:46:18;;;;;;;6.28;1.83;;;;;;;20.88;57.74;96084.19;10404454;28;20034;-28
2023/08/30 19:51:19;;;;;;;3.57;1.70;;;;;;;20.87;57.79;96087.59;10408290;28;20037;-28
2023/08/30 19:56:19;;;;;;;4.13;2.53;;;;;;;20.84;58.04;96088.47;10424253;28;20041;-29
2023/08/30 20:01:20;;;;;;;5.30;1.85;;;;;;;20.83;58.05;96089.34;10420035;28;20713;-28
2023/08/30 20:06:20;;;;;;;3.95;1.60;;;;;;;20.83;57.94;96088.47;10425412;28;20049;-29
2023/08/30 20:11:21;;;;;;;5.30;1.60;;;;;;;20.80;58.14;96094.47;10417841;28;20033;-28
2023/08/30 20:16:22;;;;;;;8.10;2.08;;;;;;;20.79;58.25;96084.34;10425861;28;20069;-29
2023/08/30 20:21:22;;;;;;;3.57;1.70;;;;;;;20.78;58.30;96088.56;10423964;28;20335;-29
2023/08/30 20:26:23;;;;;;;6.33;1.77;;;;;;;20.78;58.33;96088.56;10424576;28;20048;-29
2023/08/30 20:31:23;;;;;;;5.90;2.43;;;;;;;20.75;58.46;96093.72;10429274;28;20041;-29
2023/08/30 20:36:23;;;;;;;3.73;1.90;;;;;;;20.79;58.54;96099.59;10416793;28;20367;-28
2023/08/30 20:41:24;;;;;;;6.33;2.40;;;;;;;20.76;58.06;96097.94;10405492;28;20025;-29
2023/08/30 20:46:25;;;;;;;4.50;1.83;;;;;;;20.76;58.18;96103.03;10419328;28;20068;-28
2023/08/30 20:51:25;;;;;;;4.65;1.65;;;;;;;20.77;58.59;96102.16;10402473;28;20044;-29
2023/08/30 20:56:27;;;;;;;4.80;1.87;;;;;;;20.78;58.38;96108.06;10407591;28;20041;-27
2023/08/30 21:01:29;;;;;;;3.95;1.60;;;;;;;20.77;58.00;96107.25;10407888;28;20117;-28
2023/08/30 21:06:30;;;;;;;4.70;1.83;;;;;;;20.76;58.47;96104.72;10407381;28;20064;-28
2023/08/30 21:11:30;;;;;;;4.63;1.73;;;;;;;20.78;58.19;96103.84;10418293;28;20033;-28
2023/08/30 21:16:30;;;;;;;4.23;1.67;;;;;;;20.81;58.29;96106.31;10407514;28;20045;-29
2023/08/30 21:21:31;;;;;;;4.37;1.70;;;;;;;20.77;58.31;96117.44;10427309;28;20044;-28
2023/08/30 21:26:31;;;;;;;4.87;1.97;;;;;;;20.80;58.39;96137.72;10409537;28;20037;-30
2023/08/30 21:31:32;;;;;;;2.83;1.63;;;;;;;20.78;58.67;96148.78;10417345;28;20455;-28
2023/08/30 21:36:32;;;;;;;9.10;2.60;;;;;;;20.80;59.42;96147.88;10408453;28;20029;-29
2023/08/30 21:41:32;;;;;;;11.23;3.20;;;;;;;20.65;60.83;96152.41;10407282;28;20033;-28
2023/08/30 21:46:33;;;;;;;6.80;1.97;;;;;;;20.80;59.97;96173.31;10410451;28;20037;-28
2023/08/30 21:51:36;;;;;;;5.43;2.20;;;;;;;20.81;59.56;96174.19;10409726;28;20049;-28
2023/08/30 21:56:37;;;;;;;5.05;1.70;;;;;;;20.80;59.77;96193.69;10403861;28;20323;-29
2023/08/30 22:01:37;;;;;;;6.15;2.00;;;;;;;20.82;60.15;96211.47;10408731;28;20078;-28
2023/08/30 22:06:37;;;;;;;5.33;1.83;;;;;;;20.79;59.93;96197.09;10407314;28;20045;-28
2023/08/30 22:11:38;;;;;;;8.63;2.03;;;;;;;20.80;60.14;96203.84;10415018;28;20029;-28
2023/08/30 22:16:39;;;;;;;5.68;2.40;;;;;;;20.80;60.15;96211.50;10407775;28;20048;-28
2023/08/30 22:21:39;;;;;;;5.65;1.83;;;;;;;20.80;59.99;96218.31;10410448;28;20029;-28
2023/08/30 22:26:39;;;;;;;6.33;1.93;;;;;;;20.78;60.38;96209.84;10408050;28;20033;-28
2023/08/30 22:31:40;;;;;;;6.43;1.93;;;;;;;20.79;60.44;96216.63;10410666;28;20025;-29
2023/08/30 22:36:41;;;;;;;7.37;1.70;;;;;;;20.75;60.54;96220.06;10403257;28;20495;-29
2023/08/30 22:41:41;;;;;;;4.03;1.60;;;;;;;20.79;60.44;96231.91;10418361;28;20060;-28
2023/08/30 22:46:41;;;;;;;3.73;1.40;;;;;;;20.78;60.47;96233.59;10402243;28;20507;-29
2023/08/30 22:51:42;;;;;;;5.60;1.57;;;;;;;20.78;60.53;96235.28;10406281;28;20484;-28
2023/08/30 22:56:43;;;;;;;4.68;1.65;;;;;;;20.78;60.65;96230.19;10409898;28;20065;-28
2023/08/30 23:01:45;;;;;;;5.35;1.90;;;;;;;20.76;60.85;96237.88;10403156;28;20522;-29
2023/08/30 23:06:46;;;;;;;2.42;1.40;;;;;;;20.75;61.15;96235.34;10409850;28;20088;-29
2023/08/30 23:11:47;;;;;;;4.88;1.70;;;;;;;20.71;61.23;96234.53;10401104;28;20083;-28
2023/08/30 23:16:48;;;;;;;2.33;1.48;;;;;;;20.73;61.38;96235.34;10408864;28;20037;-28
2023/08/30 23:21:50;;;;;;;6.07;1.70;;;;;;;20.74;61.49;96234.50;10405930;28;20464;-29